Time;durP1;ratioP1;P1;durP2;ratioP2;P2;SDS_P1;SDS_P2;PMS_P1;PMS_P2;Temp;Humidity;BMP_temperature;BMP_pressure;BME280_temperature;BME280_humidity;BME280_pressure;Samples;Min_cycle;Max_cycle;Signal;HPM_P1;HPM_P2
2024/04/21 00:00:41;;;;;;;4.63;1.20;;;15.80;73.10;;;;;;5422511;26;20110;-60
2024/04/21 00:03:07;;;;;;;7.43;1.58;;;15.80;73.10;;;;;;5424159;26;20561;-60
2024/04/21 00:05:33;;;;;;;5.78;1.27;;;15.80;73.10;;;;;;5420606;26;19999;-60
2024/04/21 00:07:59;;;;;;;4.90;1.50;;;15.80;73.10;;;;;;5421198;26;20010;-60
2024/04/21 00:10:25;;;;;;;5.30;1.52;;;15.80;73.10;;;;;;5429924;26;20351;-60
2024/04/21 00:12:51;;;;;;;6.85;1.30;;;15.80;73.10;;;;;;5425504;26;20002;-60
2024/04/21 00:15:17;;;;;;;7.80;1.42;;;15.80;73.00;;;;;;5428195;26;20010;-60
2024/04/21 00:17:42;;;;;;;4.53;1.35;;;15.80;73.00;;;;;;5427561;26;20049;-60
2024/04/21 00:20:08;;;;;;;5.43;1.20;;;15.70;73.00;;;;;;5426385;26;20018;-59
2024/04/21 00:22:34;;;;;;;4.53;1.17;;;15.70;73.00;;;;;;5427099;26;20006;-60
2024/04/21 00:25:00;;;;;;;6.43;1.38;;;15.70;72.90;;;;;;5425322;26;20000;-60
2024/04/21 00:27:25;;;;;;;4.57;1.20;;;15.70;72.90;;;;;;5430240;26;19999;-60
2024/04/21 00:29:51;;;;;;;5.20;1.20;;;15.70;72.90;;;;;;5424018;26;20554;-61
2024/04/21 00:32:16;;;;;;;6.65;1.70;;;15.70;72.90;;;;;;5426958;26;20002;-60
2024/04/21 00:34:44;;;;;;;5.40;1.35;;;15.70;72.90;;;;;;5421117;26;20014;-60
2024/04/21 00:37:10;;;;;;;5.53;1.15;;;15.70;72.90;;;;;;5429746;26;19999;-60
2024/04/21 00:39:35;;;;;;;3.90;1.00;;;15.60;72.90;;;;;;5425238;26;20054;-60
2024/04/21 00:42:01;;;;;;;3.97;1.25;;;15.60;72.90;;;;;;5430866;26;19996;-60
2024/04/21 00:44:26;;;;;;;8.43;1.48;;;15.60;72.80;;;;;;5427656;26;20007;-60
2024/04/21 00:46:52;;;;;;;5.07;1.35;;;15.60;72.80;;;;;;5423833;26;20035;-60
2024/04/21 00:49:18;;;;;;;4.63;1.38;;;15.60;72.80;;;;;;5429561;26;20023;-60
2024/04/21 00:51:44;;;;;;;6.32;1.40;;;15.60;72.80;;;;;;5426144;26;20006;-60
2024/04/21 00:54:10;;;;;;;6.15;1.25;;;15.60;72.80;;;;;;5424315;26;20393;-61
2024/04/21 00:56:39;;;;;;;5.53;1.50;;;15.60;72.80;;;;;;5428468;26;20088;-60
2024/04/21 00:59:06;;;;;;;6.22;1.48;;;15.60;72.70;;;;;;5424538;26;20011;-60
2024/04/21 01:01:32;;;;;;;5.55;1.40;;;15.60;72.80;;;;;;5428783;26;20003;-59
2024/04/21 01:03:58;;;;;;;6.53;1.30;;;15.50;72.70;;;;;;5425103;26;20003;-60
2024/04/21 01:06:24;;;;;;;4.38;1.30;;;15.60;72.70;;;;;;5432039;26;20033;-60
2024/04/21 01:08:51;;;;;;;5.00;1.23;;;15.50;72.60;;;;;;5429641;26;19999;-61
2024/04/21 01:11:21;;;;;;;5.50;1.40;;;15.50;72.60;;;;;;5425850;26;20046;-60
2024/04/21 01:13:46;;;;;;;4.10;1.13;;;15.50;72.60;;;;;;5428783;26;20007;-60
2024/04/21 01:16:13;;;;;;;8.05;1.50;;;15.50;72.50;;;;;;5426632;26;20010;-60
2024/04/21 01:18:40;;;;;;;5.03;1.20;;;15.50;72.50;;;;;;5426522;26;20455;-60
2024/04/21 01:21:05;;;;;;;3.53;1.00;;;15.50;72.50;;;;;;5428663;26;19994;-60
2024/04/21 01:23:31;;;;;;;5.15;1.38;;;15.50;72.40;;;;;;5421643;26;20013;-59
2024/04/21 01:25:57;;;;;;;5.95;1.42;;;15.50;72.40;;;;;;5430130;26;20009;-60
2024/04/21 01:28:22;;;;;;;5.25;1.05;;;15.50;72.40;;;;;;5428240;26;20671;-61
2024/04/21 01:30:48;;;;;;;5.35;1.48;;;15.50;72.40;;;;;;5434913;26;20347;-61
2024/04/21 01:33:14;;;;;;;4.88;1.27;;;15.50;72.40;;;;;;5431620;26;20006;-61
2024/04/21 01:35:42;;;;;;;6.28;1.40;;;15.40;72.40;;;;;;5430878;26;20007;-61
2024/04/21 01:38:07;;;;;;;6.88;1.33;;;15.40;72.40;;;;;;5432828;26;19995;-61
2024/04/21 01:40:35;;;;;;;4.40;1.23;;;15.40;72.40;;;;;;5431976;26;19995;-61
2024/04/21 01:43:01;;;;;;;5.45;1.15;;;15.40;72.40;;;;;;5436175;26;20353;-61
2024/04/21 01:45:26;;;;;;;4.93;1.20;;;15.40;72.40;;;;;;5431788;26;20014;-61
2024/04/21 01:47:52;;;;;;;5.22;1.38;;;15.40;72.40;;;;;;5436273;26;20013;-61
2024/04/21 01:50:18;;;;;;;7.40;1.48;;;15.40;72.40;;;;;;5430542;26;20015;-61
2024/04/21 01:52:43;;;;;;;7.60;1.42;;;15.40;72.50;;;;;;5428223;26;19995;-61
2024/04/21 01:55:09;;;;;;;5.88;1.23;;;15.40;72.50;;;;;;5430736;26;20021;-61
2024/04/21 01:57:36;;;;;;;4.78;1.20;;;15.40;72.50;;;;;;5429545;26;20014;-61
2024/04/21 02:00:04;;;;;;;5.03;1.10;;;15.40;72.50;;;;;;5433148;26;19999;-61
2024/04/21 02:02:31;;;;;;;4.90;1.17;;;15.40;72.50;;;;;;5435000;26;20112;-61
2024/04/21 02:04:56;;;;;;;5.72;1.33;;;15.40;72.40;;;;;;5431345;26;20006;-61
2024/04/21 02:07:22;;;;;;;5.25;1.40;;;15.40;72.50;;;;;;5429272;26;19995;-61
2024/04/21 02:09:47;;;;;;;4.75;1.30;;;15.40;72.50;;;;;;5434452;26;19999;-61
2024/04/21 02:12:13;;;;;;;4.90;1.42;;;15.40;72.50;;;;;;5435199;26;20010;-61
2024/04/21 02:14:41;;;;;;;5.78;1.30;;;15.40;72.50;;;;;;5434765;26;19999;-61
2024/04/21 02:17:06;;;;;;;5.63;1.40;;;15.30;72.40;;;;;;5431352;26;20027;-62
2024/04/21 02:19:32;;;;;;;5.43;1.05;;;15.30;72.40;;;;;;5431052;26;20011;-61
2024/04/21 02:21:57;;;;;;;3.78;1.02;;;15.30;72.40;;;;;;5426051;26;20003;-61
2024/04/21 02:24:25;;;;;;;5.13;1.20;;;15.30;72.40;;;;;;5435090;26;20001;-61
2024/04/21 02:26:51;;;;;;;4.07;1.05;;;15.30;72.40;;;;;;5422167;26;20514;-61
2024/04/21 02:29:17;;;;;;;7.20;1.45;;;15.30;72.50;;;;;;5429339;26;20465;-61
2024/04/21 02:31:43;;;;;;;5.10;1.30;;;15.30;72.40;;;;;;5433069;26;19999;-61
2024/04/21 02:34:08;;;;;;;5.30;1.20;;;15.30;72.50;;;;;;5439378;26;20030;-61
2024/04/21 02:36:34;;;;;;;6.03;1.33;;;15.30;72.50;;;;;;5435498;26;19999;-60
2024/04/21 02:39:00;;;;;;;5.15;1.30;;;15.30;72.50;;;;;;5425432;26;20007;-61
2024/04/21 02:41:25;;;;;;;4.32;1.02;;;15.30;72.50;;;;;;5430177;26;20002;-59
2024/04/21 02:43:51;;;;;;;4.80;1.38;;;15.30;72.50;;;;;;5424134;26;20015;-59
2024/04/21 02:46:17;;;;;;;5.32;1.23;;;15.30;72.50;;;;;;5422429;26;20010;-59
2024/04/21 02:48:42;;;;;;;4.43;1.15;;;15.30;72.50;;;;;;5422410;26;20039;-59
2024/04/21 02:51:08;;;;;;;5.00;1.30;;;15.30;72.60;;;;;;5427279;26;20011;-59
2024/04/21 02:53:33;;;;;;;5.50;1.63;;;15.30;72.60;;;;;;5419810;26;20477;-59
2024/04/21 02:56:02;;;;;;;6.05;1.20;;;15.30;72.60;;;;;;5425728;26;20007;-59
2024/04/21 02:58:27;;;;;;;3.85;1.20;;;15.30;72.60;;;;;;5426819;26;20011;-60
2024/04/21 03:00:53;;;;;;;6.05;1.35;;;15.30;72.60;;;;;;5422969;26;20011;-60
2024/04/21 03:03:21;;;;;;;4.78;1.20;;;15.20;72.50;;;;;;5428374;26;20471;-60
2024/04/21 03:05:57;;;;;;;4.78;1.30;;;15.30;72.60;;;;;;5421784;26;20343;-60
2024/04/21 03:08:24;;;;;;;4.97;1.20;;;15.20;72.60;;;;;;5428740;26;20536;-60
2024/04/21 03:10:50;;;;;;;5.78;1.10;;;15.20;72.60;;;;;;5427947;26;20471;-60
2024/04/21 03:13:15;;;;;;;5.97;1.20;;;15.20;72.60;;;;;;5422559;26;20045;-61
2024/04/21 03:15:41;;;;;;;5.00;1.20;;;15.20;72.60;;;;;;5427361;26;20002;-60
2024/04/21 03:18:06;;;;;;;3.33;1.10;;;15.20;72.60;;;;;;5424337;26;20014;-60
2024/04/21 03:20:33;;;;;;;5.18;1.40;;;15.20;72.60;;;;;;5425199;26;20031;-60
2024/04/21 03:22:58;;;;;;;5.32;1.10;;;15.20;72.60;;;;;;5421812;26;20097;-60
2024/04/21 03:25:24;;;;;;;4.80;1.15;;;15.20;72.70;;;;;;5427376;26;20006;-60
2024/04/21 03:27:49;;;;;;;4.40;1.25;;;15.20;72.70;;;;;;5422271;26;20097;-60
2024/04/21 03:30:15;;;;;;;4.50;1.20;;;15.20;72.70;;;;;;5429114;26;20453;-60
2024/04/21 03:32:41;;;;;;;4.65;1.20;;;15.20;72.70;;;;;;5427610;26;20003;-60
2024/04/21 03:35:08;;;;;;;5.60;1.27;;;15.20;72.60;;;;;;5421236;26;20017;-60
2024/04/21 03:37:33;;;;;;;4.63;1.20;;;15.20;72.60;;;;;;5427022;26;20014;-60
2024/04/21 03:40:00;;;;;;;5.63;1.40;;;15.20;72.60;;;;;;5425814;26;20332;-60
2024/04/21 03:42:26;;;;;;;3.38;1.00;;;15.20;72.60;;;;;;5426788;26;20013;-60
2024/04/21 03:44:54;;;;;;;3.97;1.17;;;15.20;72.60;;;;;;5419514;26;19995;-60
2024/04/21 03:47:20;;;;;;;4.18;1.02;;;15.20;72.50;;;;;;5430381;26;19998;-60
2024/04/21 03:49:45;;;;;;;4.70;1.17;;;15.20;72.50;;;;;;5424596;26;20354;-60
2024/04/21 03:52:11;;;;;;;3.63;1.10;;;15.20;72.50;;;;;;5429186;26;20003;-60
2024/04/21 03:54:36;;;;;;;4.00;1.00;;;15.20;72.50;;;;;;5425196;26;20011;-60
2024/04/21 03:57:05;;;;;;;6.28;1.20;;;15.20;72.50;;;;;;5429693;26;20896;-60
2024/04/21 03:59:31;;;;;;;2.15;1.10;;;15.20;72.50;;;;;;5426322;26;20013;-60
2024/04/21 04:01:56;;;;;;;4.63;0.90;;;15.20;72.50;;;;;;5428186;26;19999;-60
2024/04/21 04:04:22;;;;;;;4.93;1.10;;;15.20;72.50;;;;;;5429412;26;20039;-60
2024/04/21 04:06:48;;;;;;;3.30;1.05;;;15.20;72.50;;;;;;5425612;26;20008;-60
2024/04/21 04:09:13;;;;;;;3.85;1.10;;;15.20;72.50;;;;;;5431634;26;19999;-60
2024/04/21 04:11:39;;;;;;;5.10;1.20;;;15.20;72.50;;;;;;5424893;26;20003;-60
2024/04/21 04:14:04;;;;;;;5.55;1.10;;;15.10;72.50;;;;;;5430590;26;20010;-60
2024/04/21 04:16:30;;;;;;;4.03;1.00;;;15.10;72.50;;;;;;5426248;26;20014;-60
2024/04/21 04:18:56;;;;;;;3.70;1.10;;;15.10;72.50;;;;;;5428798;26;20015;-59
2024/04/21 04:21:21;;;;;;;4.43;1.13;;;15.20;72.50;;;;;;5428674;26;19995;-60
2024/04/21 04:23:47;;;;;;;5.13;1.40;;;15.20;72.50;;;;;;5422264;26;20447;-60
2024/04/21 04:26:12;;;;;;;3.10;1.00;;;15.20;72.50;;;;;;5430141;26;20015;-60
2024/04/21 04:28:38;;;;;;;5.03;1.13;;;15.10;72.40;;;;;;5423574;26;20010;-60
2024/04/21 04:31:04;;;;;;;4.35;1.33;;;15.10;72.40;;;;;;5431025;26;20011;-60
2024/04/21 04:33:29;;;;;;;4.45;1.20;;;15.20;72.50;;;;;;5422721;26;20000;-60
2024/04/21 04:35:55;;;;;;;5.00;1.30;;;15.10;72.40;;;;;;5429915;26;20079;-60
2024/04/21 04:38:20;;;;;;;4.18;1.33;;;15.30;72.50;;;;;;5426284;26;19999;-60
2024/04/21 04:40:46;;;;;;;5.68;1.10;;;15.10;72.40;;;;;;5424570;26;20000;-60
2024/04/21 04:43:14;;;;;;;5.15;1.10;;;15.10;72.40;;;;;;5430955;26;20011;-60
2024/04/21 04:45:39;;;;;;;4.53;1.15;;;15.10;72.40;;;;;;5429777;26;20442;-60
2024/04/21 04:48:05;;;;;;;3.25;1.00;;;15.10;72.40;;;;;;5424275;26;20096;-60
2024/04/21 04:50:31;;;;;;;3.80;1.10;;;15.10;72.40;;;;;;5425612;26;19996;-60
2024/04/21 04:52:56;;;;;;;3.65;1.10;;;15.10;72.50;;;;;;5426722;26;20079;-60
2024/04/21 04:55:25;;;;;;;4.90;1.40;;;15.10;72.50;;;;;;5427616;26;20032;-60
2024/04/21 04:57:51;;;;;;;4.93;1.05;;;15.10;72.40;;;;;;5427245;26;20014;-60
2024/04/21 05:00:19;;;;;;;3.08;0.90;;;15.10;72.40;;;;;;5429485;26;19999;-60
2024/04/21 05:02:45;;;;;;;5.60;1.10;;;15.10;72.40;;;;;;5430697;26;20343;-59
2024/04/21 05:05:11;;;;;;;2.50;0.95;;;15.10;72.40;;;;;;5424436;26;19998;-60
2024/04/21 05:07:36;;;;;;;5.00;1.20;;;15.10;72.40;;;;;;5424059;26;20511;-60
2024/04/21 05:10:02;;;;;;;4.97;1.35;;;15.10;72.40;;;;;;5430845;26;20434;-60
2024/04/21 05:12:27;;;;;;;4.00;1.10;;;15.10;72.30;;;;;;5426370;26;19996;-60
2024/04/21 05:14:53;;;;;;;5.30;1.35;;;15.10;72.40;;;;;;5427091;26;20012;-60
2024/04/21 05:17:19;;;;;;;4.10;1.08;;;15.10;72.40;;;;;;5427508;26;20072;-60
2024/04/21 05:19:44;;;;;;;4.88;1.30;;;15.10;72.40;;;;;;5424842;26;20014;-60
2024/04/21 05:22:10;;;;;;;4.85;1.10;;;15.20;72.50;;;;;;5426476;26;20009;-60
2024/04/21 05:24:35;;;;;;;3.00;1.08;;;15.20;72.40;;;;;;5422685;26;20450;-60
2024/04/21 05:27:02;;;;;;;3.40;1.10;;;15.20;72.40;;;;;;5429591;26;20003;-60
2024/04/21 05:29:30;;;;;;;4.25;1.10;;;15.20;72.30;;;;;;5424821;26;20355;-60
2024/04/21 05:31:55;;;;;;;6.53;1.40;;;15.30;72.30;;;;;;5428011;26;20015;-60
2024/04/21 05:34:21;;;;;;;5.22;1.20;;;15.30;72.20;;;;;;5421076;26;20011;-60
2024/04/21 05:36:47;;;;;;;4.18;1.05;;;15.40;72.20;;;;;;5394167;26;960858;-60
2024/04/21 05:39:12;;;;;;;4.20;0.98;;;15.40;72.10;;;;;;5425370;26;20014;-59
2024/04/21 05:41:38;;;;;;;4.28;1.30;;;15.50;72.10;;;;;;5432066;26;20006;-60
2024/04/21 05:44:05;;;;;;;3.65;1.10;;;15.50;72.00;;;;;;5429258;26;19999;-60
2024/04/21 05:46:31;;;;;;;4.47;1.10;;;15.50;71.90;;;;;;5430305;26;20389;-59
2024/04/21 05:48:59;;;;;;;3.80;1.00;;;15.50;71.90;;;;;;5428902;26;20005;-60
2024/04/21 05:51:25;;;;;;;4.32;1.27;;;15.50;71.90;;;;;;5424770;26;20366;-59
2024/04/21 05:53:50;;;;;;;4.47;1.00;;;15.50;71.90;;;;;;5417495;26;19999;-60
2024/04/21 05:56:16;;;;;;;6.35;1.27;;;15.50;72.00;;;;;;5415747;26;19999;-60
2024/04/21 05:58:42;;;;;;;3.47;1.00;;;15.50;72.00;;;;;;5424376;26;20018;-60
2024/04/21 06:01:07;;;;;;;3.58;1.00;;;15.50;72.00;;;;;;5428018;26;19999;-60
2024/04/21 06:03:33;;;;;;;3.42;1.00;;;15.50;72.00;;;;;;5420059;26;20003;-60
2024/04/21 06:05:58;;;;;;;3.33;1.10;;;15.50;72.00;;;;;;5427150;26;19996;-60
2024/04/21 06:08:24;;;;;;;3.97;1.10;;;15.50;72.00;;;;;;5433492;26;20052;-61
2024/04/21 06:10:49;;;;;;;4.22;1.10;;;15.50;72.00;;;;;;5431677;26;21143;-61
2024/04/21 06:13:15;;;;;;;4.40;1.20;;;15.50;72.00;;;;;;5433854;26;20014;-61
2024/04/21 06:15:42;;;;;;;4.43;1.20;;;15.40;72.00;;;;;;5433445;26;19995;-61
2024/04/21 06:18:07;;;;;;;3.88;1.02;;;15.40;71.90;;;;;;5431677;26;20546;-61
2024/04/21 06:20:34;;;;;;;4.47;1.00;;;15.50;71.90;;;;;;5435176;26;20015;-61
2024/04/21 06:22:59;;;;;;;4.22;1.20;;;15.50;71.90;;;;;;5426814;26;20003;-61
2024/04/21 06:25:27;;;;;;;4.40;1.13;;;15.50;71.90;;;;;;5431316;26;20450;-61
2024/04/21 06:27:55;;;;;;;6.35;1.20;;;15.50;71.80;;;;;;5430165;26;20000;-61
2024/04/21 06:30:21;;;;;;;4.88;1.23;;;15.60;71.80;;;;;;5438674;26;20055;-61
2024/04/21 06:32:49;;;;;;;4.18;1.25;;;15.60;71.70;;;;;;5430870;26;20077;-61
2024/04/21 06:35:17;;;;;;;3.50;1.17;;;15.60;72.10;;;;;;5423498;26;20011;-61
2024/04/21 06:37:45;;;;;;;4.53;1.13;;;15.70;71.60;;;;;;5433594;26;20338;-61
2024/04/21 06:40:10;;;;;;;4.55;1.30;;;15.70;71.50;;;;;;5434606;26;20010;-61
2024/04/21 06:42:36;;;;;;;5.28;1.25;;;15.70;71.40;;;;;;5438100;26;20011;-61
2024/04/21 06:45:02;;;;;;;3.40;1.10;;;15.80;71.40;;;;;;5428345;26;20997;-61
2024/04/21 06:47:28;;;;;;;3.78;1.15;;;15.70;71.30;;;;;;5436287;26;19995;-61
2024/04/21 06:49:53;;;;;;;4.95;1.15;;;15.80;71.30;;;;;;5434728;26;20023;-61
2024/04/21 06:52:20;;;;;;;4.05;1.00;;;15.80;71.30;;;;;;5441641;26;19999;-61
2024/04/21 06:54:46;;;;;;;4.68;1.50;;;15.80;71.30;;;;;;5434826;26;20102;-61
2024/04/21 06:57:12;;;;;;;4.07;0.95;;;15.90;71.30;;;;;;5432390;26;20011;-61
2024/04/21 06:59:37;;;;;;;5.88;1.10;;;15.90;71.30;;;;;;5428587;26;20002;-61
2024/04/21 07:02:03;;;;;;;4.10;1.10;;;15.90;71.20;;;;;;5424387;26;19995;-61
2024/04/21 07:04:29;;;;;;;4.32;0.90;;;16.00;71.20;;;;;;5436302;26;19999;-61
2024/04/21 07:06:57;;;;;;;5.07;1.23;;;16.00;71.20;;;;;;5434711;26;20095;-61
2024/04/21 07:09:25;;;;;;;5.60;1.20;;;16.00;71.10;;;;;;5429177;26;20018;-61
2024/04/21 07:11:51;;;;;;;6.55;1.30;;;16.10;71.10;;;;;;5431281;26;20539;-61
2024/04/21 07:14:17;;;;;;;3.80;1.33;;;16.00;71.00;;;;;;5429946;26;19995;-61
2024/04/21 07:16:43;;;;;;;5.22;1.42;;;16.10;71.00;;;;;;5431716;26;20335;-60
2024/04/21 07:19:11;;;;;;;4.50;1.20;;;16.10;71.00;;;;;;5425600;26;20011;-61
2024/04/21 07:21:36;;;;;;;3.30;1.00;;;16.10;71.00;;;;;;5424137;26;20017;-61
2024/04/21 07:24:02;;;;;;;5.13;1.20;;;16.10;71.00;;;;;;5424503;26;20592;-61
2024/04/21 07:26:28;;;;;;;3.03;1.02;;;16.10;70.90;;;;;;5423837;26;20007;-61
2024/04/21 07:28:54;;;;;;;4.20;1.05;;;16.20;70.90;;;;;;5421744;26;19999;-61
2024/04/21 07:31:19;;;;;;;3.97;1.20;;;16.10;70.90;;;;;;5427823;26;20029;-61
2024/04/21 07:33:45;;;;;;;2.75;1.00;;;16.10;70.90;;;;;;5422720;26;20068;-60
2024/04/21 07:36:10;;;;;;;2.67;1.02;;;16.20;71.00;;;;;;5432725;26;20002;-60
2024/04/21 07:38:38;;;;;;;4.18;1.10;;;16.10;71.00;;;;;;5424004;26;20781;-61
2024/04/21 07:41:04;;;;;;;4.20;1.35;;;16.20;71.00;;;;;;5426189;26;20014;-61
2024/04/21 07:43:29;;;;;;;4.13;1.10;;;16.20;71.60;;;;;;5427352;26;20428;-61
2024/04/21 07:45:57;;;;;;;3.50;1.20;;;16.20;71.00;;;;;;5417334;26;20011;-61
2024/04/21 07:48:23;;;;;;;3.60;1.02;;;16.20;71.00;;;;;;5428004;26;20013;-61
2024/04/21 07:50:49;;;;;;;3.22;0.90;;;16.30;71.00;;;;;;5421322;26;20013;-61
2024/04/21 07:53:14;;;;;;;5.03;1.10;;;16.30;70.90;;;;;;5424441;26;19999;-61
2024/04/21 07:55:40;;;;;;;3.58;1.00;;;16.40;70.90;;;;;;5422688;26;20455;-60
2024/04/21 07:58:08;;;;;;;3.20;1.02;;;16.40;70.80;;;;;;5425092;26;20007;-60
2024/04/21 08:00:40;;;;;;;3.35;0.90;;;16.40;70.80;;;;;;5424458;26;20331;-60
2024/04/21 08:03:05;;;;;;;2.92;1.00;;;16.40;70.80;;;;;;5429398;26;20003;-61
2024/04/21 08:05:31;;;;;;;3.80;1.17;;;16.40;70.90;;;;;;5421101;26;20562;-60
2024/04/21 08:07:56;;;;;;;5.18;1.08;;;16.40;70.80;;;;;;5422829;26;20007;-60
2024/04/21 08:10:22;;;;;;;3.75;0.93;;;16.40;70.80;;;;;;5427307;26;19999;-61
2024/04/21 08:12:48;;;;;;;3.47;1.10;;;16.40;70.80;;;;;;5419476;26;20003;-61
2024/04/21 08:15:14;;;;;;;3.47;1.00;;;16.40;70.80;;;;;;5422472;26;20000;-60
2024/04/21 08:17:41;;;;;;;4.55;1.17;;;16.50;70.90;;;;;;5424496;26;19999;-60
2024/04/21 08:20:07;;;;;;;3.97;1.10;;;16.40;70.80;;;;;;5423185;26;19999;-60
2024/04/21 08:22:36;;;;;;;4.13;1.20;;;16.40;70.90;;;;;;5420270;26;20007;-60
2024/04/21 08:25:02;;;;;;;3.28;1.00;;;16.40;70.90;;;;;;5422654;26;20454;-61
2024/04/21 08:27:28;;;;;;;2.65;1.02;;;16.40;71.00;;;;;;5421277;26;20045;-60
2024/04/21 08:29:53;;;;;;;4.60;1.40;;;16.40;71.00;;;;;;5425879;26;20011;-60
2024/04/21 08:32:19;;;;;;;4.22;1.10;;;16.40;71.00;;;;;;5422516;26;20863;-60
2024/04/21 08:34:45;;;;;;;3.25;1.15;;;16.40;71.00;;;;;;5424029;26;20026;-60
2024/04/21 08:37:11;;;;;;;3.97;1.00;;;16.40;71.00;;;;;;5436240;26;19999;-60
2024/04/21 08:39:39;;;;;;;3.33;1.10;;;16.30;70.90;;;;;;5426166;26;19999;-60
2024/04/21 08:42:08;;;;;;;3.30;1.00;;;16.30;71.00;;;;;;5429384;26;19995;-60
2024/04/21 08:44:35;;;;;;;3.80;1.20;;;16.30;71.00;;;;;;5420209;26;20010;-60
2024/04/21 08:47:03;;;;;;;2.80;1.00;;;16.30;71.00;;;;;;5426243;26;20026;-60
2024/04/21 08:49:30;;;;;;;2.80;1.00;;;16.30;71.10;;;;;;5427819;26;20588;-60
2024/04/21 08:51:58;;;;;;;4.13;1.02;;;16.30;71.10;;;;;;5424676;26;20011;-60
2024/04/21 08:54:28;;;;;;;3.05;1.10;;;16.30;71.10;;;;;;5427694;26;20010;-60
2024/04/21 08:56:56;;;;;;;2.92;1.00;;;16.30;71.20;;;;;;5424537;26;20039;-60
2024/04/21 08:59:24;;;;;;;3.70;1.00;;;16.30;71.20;;;;;;5430059;26;20485;-60
2024/04/21 09:01:51;;;;;;;3.92;1.15;;;16.20;71.20;;;;;;5423448;26;20035;-60
2024/04/21 09:04:17;;;;;;;2.85;0.90;;;16.20;71.20;;;;;;5429934;26;20015;-60
2024/04/21 09:06:45;;;;;;;3.97;1.10;;;16.20;71.30;;;;;;5422939;26;20090;-60
2024/04/21 09:09:10;;;;;;;3.80;1.08;;;16.20;71.30;;;;;;5429097;26;19999;-60
2024/04/21 09:11:39;;;;;;;1.95;0.80;;;16.20;71.90;;;;;;5424717;26;20453;-60
2024/04/21 09:14:05;;;;;;;5.22;1.40;;;16.20;71.30;;;;;;5426521;26;20015;-60
2024/04/21 09:16:31;;;;;;;3.42;1.10;;;16.20;71.30;;;;;;5426011;26;20011;-60
2024/04/21 09:19:01;;;;;;;3.97;1.33;;;16.20;71.30;;;;;;5424482;26;20011;-60
2024/04/21 09:21:26;;;;;;;3.72;1.25;;;16.20;71.30;;;;;;5426443;26;19995;-60
2024/04/21 09:23:54;;;;;;;3.97;1.20;;;16.20;71.30;;;;;;5421329;26;20015;-60
2024/04/21 09:26:20;;;;;;;3.55;1.00;;;16.20;71.40;;;;;;5428623;26;20011;-60
2024/04/21 09:28:49;;;;;;;2.88;0.90;;;16.20;71.40;;;;;;5422679;26;20003;-60
2024/04/21 09:31:14;;;;;;;2.67;1.08;;;16.20;71.40;;;;;;5430227;26;20011;-61
2024/04/21 09:33:40;;;;;;;3.90;1.05;;;16.20;71.50;;;;;;5423348;26;20033;-60
2024/04/21 09:36:06;;;;;;;3.55;1.15;;;16.20;71.50;;;;;;5433188;26;20014;-60
2024/04/21 09:38:35;;;;;;;3.35;0.95;;;16.20;71.50;;;;;;5426297;26;20006;-60
2024/04/21 09:41:03;;;;;;;3.33;1.17;;;16.20;71.50;;;;;;5427893;26;20461;-60
2024/04/21 09:43:29;;;;;;;3.42;1.20;;;16.20;71.50;;;;;;5426071;26;19999;-60
2024/04/21 09:45:57;;;;;;;3.92;1.20;;;16.20;71.50;;;;;;5418060;26;20003;-61
2024/04/21 09:48:27;;;;;;;4.00;1.15;;;16.20;71.50;;;;;;5426943;26;20035;-61
2024/04/21 09:50:53;;;;;;;;;;;16.20;71.60;;;;;;5425209;26;20014;-60
2024/04/21 09:53:20;;;;;;;3.85;1.25;;;16.20;71.60;;;;;;5424846;26;19931;-60
2024/04/21 09:55:47;;;;;;;4.38;1.30;;;16.20;72.10;;;;;;5423553;26;20065;-60
2024/04/21 09:58:14;;;;;;;3.38;1.10;;;16.20;71.60;;;;;;5430092;26;20013;-60
2024/04/21 10:00:44;;;;;;;2.58;1.00;;;16.20;71.60;;;;;;5429756;26;19996;-60
2024/04/21 10:03:10;;;;;;;2.30;1.00;;;16.20;71.60;;;;;;5423033;26;20006;-61
2024/04/21 10:05:37;;;;;;;4.15;1.33;;;16.30;71.60;;;;;;5423708;26;20225;-61
2024/04/21 10:08:05;;;;;;;3.42;1.23;;;16.20;71.60;;;;;;5428867;26;20014;-61
2024/04/21 10:10:35;;;;;;;3.22;1.20;;;16.20;71.70;;;;;;5425852;26;19999;-60
2024/04/21 10:13:01;;;;;;;2.40;1.10;;;16.20;71.80;;;;;;5427047;26;19991;-60
2024/04/21 10:15:28;;;;;;;2.58;1.15;;;16.20;71.80;;;;;;5426529;26;20648;-61
2024/04/21 10:18:03;;;;;;;4.50;1.48;;;16.30;71.90;;;;;;5424983;26;20000;-60
2024/04/21 10:20:39;;;;;;;3.42;1.10;;;16.30;71.90;;;;;;5425116;26;19998;-60
2024/04/21 10:23:11;;;;;;;3.15;1.15;;;16.30;71.90;;;;;;5425700;26;19995;-61
2024/04/21 10:25:39;;;;;;;2.58;1.08;;;16.30;71.90;;;;;;5422345;26;19995;-61
2024/04/21 10:28:07;;;;;;;3.10;1.05;;;16.40;71.90;;;;;;5426687;26;19995;-60
2024/04/21 10:30:33;;;;;;;3.60;1.20;;;16.40;71.90;;;;;;5424089;26;20539;-60
2024/04/21 10:33:03;;;;;;;4.10;1.25;;;16.40;71.90;;;;;;5425823;26;20017;-61
2024/04/21 10:35:39;;;;;;;3.33;1.15;;;16.40;71.90;;;;;;5424377;26;20046;-60
2024/04/21 10:38:07;;;;;;;3.15;1.20;;;16.50;71.90;;;;;;5429299;26;19994;-60
2024/04/21 10:40:37;;;;;;;3.10;1.25;;;16.50;71.90;;;;;;5423656;26;20011;-60
2024/04/21 10:43:04;;;;;;;3.70;1.10;;;16.50;71.80;;;;;;5429067;26;20018;-61
2024/04/21 10:45:32;;;;;;;3.90;1.20;;;16.50;71.80;;;;;;5427214;26;20001;-61
2024/04/21 10:47:57;;;;;;;3.85;1.20;;;16.50;71.80;;;;;;5427048;26;19999;-60
2024/04/21 10:50:26;;;;;;;3.42;1.20;;;16.50;71.80;;;;;;5425850;26;20076;-60
2024/04/21 10:52:51;;;;;;;3.67;1.13;;;16.50;71.80;;;;;;5421379;26;20000;-60
2024/04/21 10:55:19;;;;;;;4.05;1.17;;;16.50;71.70;;;;;;5426834;26;20641;-60
2024/04/21 10:57:45;;;;;;;3.33;1.10;;;16.60;71.80;;;;;;5422652;26;20068;-60
2024/04/21 11:00:11;;;;;;;2.20;1.00;;;16.50;71.70;;;;;;5427958;26;20093;-60
2024/04/21 11:02:37;;;;;;;3.70;1.20;;;16.60;71.70;;;;;;5428905;26;20011;-60
2024/04/21 11:05:04;;;;;;;4.97;1.23;;;16.60;71.70;;;;;;5420431;26;20352;-60
2024/04/21 11:07:33;;;;;;;2.80;1.20;;;16.60;71.70;;;;;;5422946;26;20418;-60
2024/04/21 11:09:59;;;;;;;3.17;1.10;;;16.60;71.70;;;;;;5427234;26;20006;-60
2024/04/21 11:12:25;;;;;;;3.42;1.23;;;16.60;72.20;;;;;;5424966;26;20030;-60
2024/04/21 11:14:57;;;;;;;3.70;1.20;;;16.60;71.80;;;;;;5424777;26;20000;-60
2024/04/21 11:17:23;;;;;;;3.80;1.15;;;16.60;71.80;;;;;;5425597;26;19995;-60
2024/04/21 11:19:49;;;;;;;2.70;1.00;;;16.60;71.80;;;;;;5425176;26;20452;-60
2024/04/21 11:22:16;;;;;;;3.25;1.23;;;16.60;71.70;;;;;;5423858;26;20038;-60
2024/04/21 11:24:43;;;;;;;2.70;1.10;;;16.60;71.80;;;;;;5423226;26;20022;-60
2024/04/21 11:27:16;;;;;;;3.45;1.20;;;16.60;71.80;;;;;;5427914;26;19995;-60
2024/04/21 11:29:42;;;;;;;3.15;1.10;;;16.60;71.70;;;;;;5422383;26;19999;-60
2024/04/21 11:32:10;;;;;;;3.22;1.20;;;16.60;71.70;;;;;;5427899;26;19995;-60
2024/04/21 11:34:37;;;;;;;3.35;1.30;;;16.60;71.70;;;;;;5416541;26;20470;-60
2024/04/21 11:37:03;;;;;;;3.08;1.23;;;16.60;71.70;;;;;;5434730;26;20347;-60
2024/04/21 11:39:29;;;;;;;2.92;1.17;;;16.60;71.80;;;;;;5422687;26;20011;-60
2024/04/21 11:41:55;;;;;;;3.47;1.30;;;16.60;71.80;;;;;;5428576;26;20056;-60
2024/04/21 11:44:20;;;;;;;3.65;1.35;;;16.50;71.80;;;;;;5427700;26;19998;-60
2024/04/21 11:46:48;;;;;;;2.08;0.90;;;16.60;71.80;;;;;;5421665;26;20003;-60
2024/04/21 11:49:14;;;;;;;3.08;1.25;;;16.60;71.90;;;;;;5424348;26;20011;-60
2024/04/21 11:51:40;;;;;;;3.53;1.25;;;16.60;71.90;;;;;;5426413;26;19999;-60
2024/04/21 11:54:07;;;;;;;3.17;1.10;;;16.60;71.80;;;;;;5418226;26;20000;-60
2024/04/21 11:56:32;;;;;;;3.42;1.27;;;16.50;71.80;;;;;;5428147;26;20481;-61
2024/04/21 11:58:58;;;;;;;2.65;1.00;;;16.50;71.80;;;;;;5422263;26;20000;-61
2024/04/21 12:01:24;;;;;;;3.85;1.35;;;16.60;71.90;;;;;;5429320;26;20003;-61
2024/04/21 12:03:50;;;;;;;3.15;1.05;;;16.50;71.80;;;;;;5423736;26;20015;-61
2024/04/21 12:06:18;;;;;;;2.97;1.10;;;16.50;71.80;;;;;;5429109;26;20029;-62
2024/04/21 12:08:45;;;;;;;3.80;1.27;;;16.50;71.80;;;;;;5427106;26;20006;-61
2024/04/21 12:11:13;;;;;;;3.63;1.30;;;16.50;71.80;;;;;;5444113;26;20018;-62
2024/04/21 12:13:39;;;;;;;3.55;1.20;;;16.50;71.80;;;;;;5428129;26;20068;-62
2024/04/21 12:16:04;;;;;;;2.65;1.15;;;16.50;71.80;;;;;;5431662;26;20038;-61
2024/04/21 12:18:30;;;;;;;3.03;1.20;;;16.50;71.80;;;;;;5426561;26;20046;-62
2024/04/21 12:20:58;;;;;;;3.47;1.20;;;16.50;71.80;;;;;;5432262;26;19995;-61
2024/04/21 12:23:23;;;;;;;2.75;1.10;;;16.50;71.80;;;;;;5425629;26;20435;-61
2024/04/21 12:25:49;;;;;;;2.63;1.10;;;16.50;71.80;;;;;;5433350;26;20074;-61
2024/04/21 12:28:15;;;;;;;2.70;1.10;;;16.60;71.90;;;;;;5426017;26;20451;-61
2024/04/21 12:30:40;;;;;;;3.22;1.00;;;16.60;71.90;;;;;;5428144;26;20072;-61
2024/04/21 12:33:08;;;;;;;2.55;1.02;;;16.60;71.90;;;;;;5423820;26;20015;-61
2024/04/21 12:35:34;;;;;;;2.90;1.10;;;16.60;71.90;;;;;;5427551;26;20011;-61
2024/04/21 12:37:59;;;;;;;2.60;1.00;;;16.60;72.30;;;;;;5431642;26;19995;-61
2024/04/21 12:40:25;;;;;;;3.03;1.10;;;16.60;71.80;;;;;;5426412;26;20073;-61
2024/04/21 12:42:50;;;;;;;3.40;1.20;;;16.60;71.80;;;;;;5432624;26;19999;-61